Time;durP1;ratioP1;P1;durP2;ratioP2;P2;SDS_P1;SDS_P2;PMS_P1;PMS_P2;Temp;Humidity;BMP_temperature;BMP_pressure;BME280_temperature;BME280_humidity;BME280_pressure;Samples;Min_cycle;Max_cycle;Signal;HPM_P1;HPM_P2
2022/03/12 00:01:13;;;;;;;39.20;20.83;;;6.50;76.40;;;;;;5063033;28;20557;-47
2022/03/12 00:03:40;;;;;;;33.97;20.40;;;6.60;76.20;;;;;;5065075;28;20480;-47
2022/03/12 00:06:09;;;;;;;38.53;20.67;;;6.60;76.40;;;;;;5067904;28;20479;-47
2022/03/12 00:08:42;;;;;;;34.80;19.00;;;6.70;76.40;;;;;;5063265;28;20484;-47
2022/03/12 00:11:10;;;;;;;31.97;19.13;;;6.70;77.20;;;;;;5051065;28;20474;-47
2022/03/12 00:13:37;;;;;;;31.17;18.37;;;6.60;76.40;;;;;;5067787;28;20484;-47
2022/03/12 00:16:04;;;;;;;36.87;21.30;;;6.70;76.90;;;;;;5065935;28;20480;-47
2022/03/12 00:18:31;;;;;;;33.67;18.30;;;6.80;76.50;;;;;;5063398;28;20600;-47
2022/03/12 00:20:58;;;;;;;31.33;20.57;;;6.80;76.60;;;;;;5065167;28;20541;-47
2022/03/12 00:23:26;;;;;;;29.27;17.70;;;6.70;77.70;;;;;;5065917;28;20480;-47
2022/03/12 00:25:54;;;;;;;31.67;18.43;;;6.70;77.20;;;;;;5064969;28;21050;-47
2022/03/12 00:28:21;;;;;;;31.27;19.80;;;6.70;76.90;;;;;;5054020;28;20475;-47
2022/03/12 00:30:49;;;;;;;42.47;18.60;;;6.80;76.50;;;;;;5053554;28;20482;-47
2022/03/12 00:33:17;;;;;;;29.93;17.07;;;6.90;76.70;;;;;;5067723;28;20479;-47
2022/03/12 00:35:47;;;;;;;33.43;18.80;;;6.90;76.50;;;;;;5063875;28;20480;-48
2022/03/12 00:38:13;;;;;;;24.70;16.20;;;7.00;76.40;;;;;;5065761;28;20476;-47
2022/03/12 00:40:40;;;;;;;34.50;16.80;;;7.10;78.10;;;;;;5065066;28;20473;-50
2022/03/12 00:43:09;;;;;;;37.13;20.30;;;7.20;77.80;;;;;;5066128;28;20494;-48
2022/03/12 00:45:36;;;;;;;33.10;18.60;;;7.30;76.90;;;;;;5068173;28;20866;-47
2022/03/12 00:48:03;;;;;;;37.53;19.93;;;7.30;76.50;;;;;;5062950;28;21014;-48
2022/03/12 00:50:29;;;;;;;29.30;17.20;;;7.40;76.50;;;;;;5061505;28;20544;-47
2022/03/12 00:52:56;;;;;;;23.97;15.10;;;7.40;76.90;;;;;;5065507;28;20488;-48
2022/03/12 00:55:23;;;;;;;35.63;17.90;;;7.60;81.30;;;;;;5064459;28;20483;-48
2022/03/12 00:57:49;;;;;;;26.87;15.17;;;7.70;80.20;;;;;;5062448;28;20476;-48
2022/03/12 01:00:20;;;;;;;24.20;15.90;;;7.80;79.50;;;;;;5069669;28;20484;-47
2022/03/12 01:02:47;;;;;;;31.57;15.07;;;8.00;81.60;;;;;;5062958;28;20484;-48
2022/03/12 01:05:17;;;;;;;17.00;10.00;;;8.10;83.00;;;;;;5062050;28;20537;-48
2022/03/12 01:07:44;;;;;;;17.53;12.43;;;8.20;84.50;;;;;;5065877;28;20485;-48
2022/03/12 01:10:12;;;;;;;28.53;14.23;;;8.40;82.30;;;;;;5061682;28;20519;-48
2022/03/12 01:12:39;;;;;;;19.47;12.90;;;8.50;82.40;;;;;;5063546;28;20478;-48
2022/03/12 01:15:08;;;;;;;22.97;14.17;;;8.60;81.50;;;;;;5064455;28;20481;-48
2022/03/12 01:17:36;;;;;;;27.30;12.60;;;8.70;81.10;;;;;;5067413;28;20468;-48
2022/03/12 01:20:06;;;;;;;26.33;15.40;;;8.80;81.00;;;;;;5060782;28;20504;-48
2022/03/12 01:22:38;;;;;;;23.50;12.40;;;8.90;80.70;;;;;;5059046;28;20556;-48
2022/03/12 01:25:07;;;;;;;18.63;13.80;;;8.90;80.20;;;;;;5059373;28;20482;-53
2022/03/12 01:27:34;;;;;;;23.27;13.83;;;8.90;80.60;;;;;;5055718;28;20489;-49
2022/03/12 01:30:01;;;;;;;39.83;12.60;;;8.90;81.50;;;;;;5055343;28;20480;-48
2022/03/12 01:32:28;;;;;;;24.67;14.77;;;9.00;81.10;;;;;;5059987;28;20490;-48
2022/03/12 01:34:56;;;;;;;19.50;12.40;;;8.90;81.90;;;;;;5061359;28;20489;-48
2022/03/12 01:37:23;;;;;;;29.23;14.03;;;8.90;82.40;;;;;;5060598;28;20548;-49
2022/03/12 01:39:50;;;;;;;22.73;13.60;;;8.90;83.30;;;;;;5058711;28;20543;-48
2022/03/12 01:42:21;;;;;;;35.50;19.00;;;8.80;81.80;;;;;;5061430;28;20486;-48
2022/03/12 01:44:49;;;;;;;33.00;15.90;;;8.80;81.00;;;;;;5057737;28;20488;-48
2022/03/12 01:47:19;;;;;;;22.53;12.30;;;8.80;83.00;;;;;;5061460;28;20478;-49
2022/03/12 01:49:47;;;;;;;20.27;11.70;;;8.80;84.80;;;;;;5058242;28;20494;-48
2022/03/12 01:52:15;;;;;;;19.57;10.50;;;8.90;85.70;;;;;;5061840;28;21086;-48
2022/03/12 01:54:43;;;;;;;20.30;11.30;;;8.90;85.70;;;;;;5061470;28;20954;-48
2022/03/12 01:57:10;;;;;;;18.10;12.33;;;9.00;84.20;;;;;;5062883;28;20478;-49
2022/03/12 01:59:37;;;;;;;16.67;11.90;;;9.10;83.70;;;;;;5056391;28;20932;-48
2022/03/12 02:02:08;;;;;;;42.17;17.80;;;9.00;85.90;;;;;;5057736;28;21142;-48
2022/03/12 02:04:38;;;;;;;15.30;11.00;;;8.90;89.20;;;;;;5069054;28;21301;-49
2022/03/12 02:07:05;;;;;;;16.13;11.73;;;8.90;88.70;;;;;;5060638;28;20486;-49
2022/03/12 02:09:33;;;;;;;20.37;12.10;;;9.00;88.40;;;;;;5058624;28;20476;-48
2022/03/12 02:12:00;;;;;;;22.10;11.03;;;9.10;88.40;;;;;;5059223;28;20555;-49
2022/03/12 02:14:28;;;;;;;20.83;9.57;;;9.10;88.90;;;;;;5060668;28;20481;-49
2022/03/12 02:16:57;;;;;;;16.50;10.77;;;9.20;89.20;;;;;;5059734;28;20555;-48
2022/03/12 02:19:26;;;;;;;21.73;10.00;;;9.30;88.90;;;;;;5058824;28;20884;-48
2022/03/12 02:21:55;;;;;;;15.23;10.00;;;9.30;88.60;;;;;;5058336;28;20559;-49
2022/03/12 02:24:26;;;;;;;15.03;9.60;;;9.30;89.30;;;;;;5060043;28;20490;-50
2022/03/12 02:26:54;;;;;;;12.27;8.30;;;9.40;90.70;;;;;;5058497;28;20608;-49
2022/03/12 02:29:23;;;;;;;11.80;7.80;;;9.40;91.10;;;;;;5055241;28;20481;-48
2022/03/12 02:31:52;;;;;;;11.07;7.40;;;9.50;91.20;;;;;;5059657;28;20641;-48
2022/03/12 02:34:21;;;;;;;11.67;7.90;;;9.50;90.70;;;;;;5060767;28;20602;-48
2022/03/12 02:36:49;;;;;;;14.10;8.00;;;9.60;90.70;;;;;;5060159;28;20481;-50
2022/03/12 02:39:17;;;;;;;23.57;8.60;;;9.80;89.70;;;;;;5059053;28;20798;-48
2022/03/12 02:41:45;;;;;;;16.73;11.90;;;9.80;88.90;;;;;;5032213;28;20551;-47
2022/03/12 02:44:18;;;;;;;18.07;11.40;;;9.90;88.40;;;;;;5059929;28;20535;-48
2022/03/12 02:47:14;;;;;;;17.17;8.73;;;9.90;88.00;;;;;;5032653;28;20484;-48
2022/03/12 02:49:48;;;;;;;11.53;8.17;;;9.90;88.20;;;;;;5052346;28;20619;-47
2022/03/12 02:52:15;;;;;;;13.70;8.90;;;10.00;87.60;;;;;;5069069;28;20466;-48
2022/03/12 02:54:42;;;;;;;17.70;9.00;;;9.90;89.50;;;;;;5057987;28;20477;-49
2022/03/12 02:57:11;;;;;;;14.33;9.10;;;9.90;89.90;;;;;;5062771;28;20483;-49
2022/03/12 02:59:38;;;;;;;9.80;7.50;;;9.80;90.00;;;;;;5059098;28;20493;-49
2022/03/12 03:02:08;;;;;;;15.47;9.23;;;9.90;89.40;;;;;;5058986;28;20575;-49
2022/03/12 03:04:39;;;;;;;20.03;9.17;;;10.00;88.50;;;;;;5052458;28;20849;-48
2022/03/12 03:07:08;;;;;;;11.40;8.43;;;10.00;88.70;;;;;;5069384;28;20836;-48
2022/03/12 03:09:34;;;;;;;13.90;9.33;;;10.00;88.00;;;;;;5061494;28;20919;-47
2022/03/12 03:12:03;;;;;;;15.73;8.90;;;10.00;88.40;;;;;;5052796;28;20474;-47
2022/03/12 03:14:31;;;;;;;15.20;9.90;;;10.00;88.60;;;;;;5059075;28;20579;-48
2022/03/12 03:17:00;;;;;;;11.07;7.90;;;9.90;90.10;;;;;;5060269;28;21058;-47
2022/03/12 03:19:27;;;;;;;13.17;8.63;;;9.90;90.10;;;;;;5058613;28;20480;-48
2022/03/12 03:21:54;;;;;;;17.27;10.10;;;9.90;90.10;;;;;;5059197;28;20482;-48
2022/03/12 03:24:22;;;;;;;13.40;8.97;;;9.90;90.10;;;;;;5061321;28;20482;-47
2022/03/12 03:26:54;;;;;;;16.97;10.10;;;9.90;90.20;;;;;;5059074;28;20474;-47
2022/03/12 03:29:22;;;;;;;16.70;10.80;;;9.90;90.00;;;;;;5025584;28;20481;-47
2022/03/12 03:31:50;;;;;;;22.93;9.27;;;10.00;88.70;;;;;;5065737;28;21000;-47
2022/03/12 03:34:18;;;;;;;16.57;9.73;;;10.00;89.00;;;;;;5060017;28;20477;-47
2022/03/12 03:36:46;;;;;;;17.00;9.50;;;10.00;89.00;;;;;;5059188;28;20835;-47
2022/03/12 03:39:13;;;;;;;18.50;9.90;;;10.00;89.00;;;;;;5060803;28;20482;-48
2022/03/12 03:41:40;;;;;;;14.87;10.13;;;9.90;90.50;;;;;;5058016;28;20575;-47
2022/03/12 03:44:07;;;;;;;12.13;9.10;;;9.90;90.30;;;;;;5060491;28;20486;-47
2022/03/12 03:46:34;;;;;;;17.60;9.47;;;9.90;90.20;;;;;;5061030;28;20548;-47
2022/03/12 03:49:05;;;;;;;12.20;8.63;;;9.90;90.20;;;;;;5059241;28;21035;-47
2022/03/12 03:51:37;;;;;;;13.87;9.17;;;10.00;89.10;;;;;;5055779;28;20486;-47
2022/03/12 03:54:05;;;;;;;17.60;10.60;;;9.90;90.00;;;;;;5061292;28;20508;-47
2022/03/12 03:56:34;;;;;;;17.07;10.00;;;10.00;88.90;;;;;;5063170;28;21094;-47
2022/03/12 03:59:00;;;;;;;18.83;8.87;;;9.90;90.20;;;;;;5060079;28;21421;-47
2022/03/12 04:01:27;;;;;;;13.57;8.83;;;9.90;90.10;;;;;;5062382;28;20490;-47
2022/03/12 04:03:54;;;;;;;13.00;9.20;;;9.90;90.20;;;;;;5059343;28;20498;-48
2022/03/12 04:06:24;;;;;;;11.17;8.97;;;9.90;90.60;;;;;;5062098;28;20489;-47
2022/03/12 04:08:52;;;;;;;13.47;7.83;;;9.80;90.90;;;;;;5054646;28;20585;-47
2022/03/12 04:11:22;;;;;;;12.33;8.77;;;9.70;91.10;;;;;;5056440;28;20489;-47
2022/03/12 04:13:51;;;;;;;30.70;10.43;;;9.60;90.90;;;;;;5073146;28;20478;-47
2022/03/12 04:16:19;;;;;;;15.50;10.27;;;9.70;90.90;;;;;;5062178;28;20470;-47
2022/03/12 04:18:46;;;;;;;14.23;9.33;;;9.70;90.70;;;;;;5058747;28;20521;-47
2022/03/12 04:21:15;;;;;;;18.47;10.40;;;9.70;90.40;;;;;;5062025;28;20481;-47
2022/03/12 04:23:44;;;;;;;15.07;9.27;;;9.60;90.60;;;;;;5060456;28;20762;-47
2022/03/12 04:26:11;;;;;;;13.30;8.27;;;9.60;90.70;;;;;;5066224;28;20911;-48
2022/03/12 04:28:39;;;;;;;18.83;9.93;;;9.60;90.60;;;;;;5059020;28;20987;-48
2022/03/12 04:31:07;;;;;;;14.50;9.60;;;9.60;90.50;;;;;;5062794;28;20991;-49
2022/03/12 04:33:34;;;;;;;16.23;10.57;;;9.60;90.70;;;;;;5062495;28;20980;-48
2022/03/12 04:36:03;;;;;;;16.37;10.27;;;9.60;90.50;;;;;;5061258;28;20508;-48
2022/03/12 04:38:30;;;;;;;15.27;9.97;;;9.70;90.40;;;;;;5061147;28;20896;-49
2022/03/12 04:40:59;;;;;;;10.67;8.50;;;9.60;90.60;;;;;;5061143;28;20594;-48
2022/03/12 04:43:26;;;;;;;14.30;9.37;;;9.70;90.20;;;;;;5061578;28;20511;-54
2022/03/12 04:45:54;;;;;;;13.67;9.73;;;9.70;90.20;;;;;;5060621;28;20474;-48
2022/03/12 04:48:23;;;;;;;14.53;9.60;;;9.80;90.00;;;;;;5060496;28;20555;-47
2022/03/12 04:50:51;;;;;;;11.83;8.87;;;9.80;90.20;;;;;;5060488;28;20486;-48
2022/03/12 04:53:19;;;;;;;12.90;9.73;;;9.80;90.10;;;;;;5060529;28;20488;-48
2022/03/12 04:55:46;;;;;;;23.43;9.63;;;9.80;89.90;;;;;;5062066;28;20483;-48
2022/03/12 04:58:14;;;;;;;15.60;10.23;;;9.80;90.30;;;;;;5062772;28;20498;-48
2022/03/12 05:00:42;;;;;;;12.07;8.57;;;9.70;90.40;;;;;;5047517;28;20487;-47
2022/03/12 05:03:12;;;;;;;30.37;11.30;;;9.70;90.30;;;;;;5049096;28;20484;-48
2022/03/12 05:05:40;;;;;;;17.83;9.40;;;9.80;90.20;;;;;;5061507;28;20489;-48
2022/03/12 05:08:09;;;;;;;12.97;9.50;;;9.80;90.00;;;;;;5062013;28;21238;-49
2022/03/12 05:10:36;;;;;;;21.77;9.70;;;9.80;89.20;;;;;;5062564;28;20498;-48
2022/03/12 05:13:04;;;;;;;13.77;9.37;;;9.90;89.50;;;;;;5057956;28;20479;-48
2022/03/12 05:15:37;;;;;;;15.00;9.77;;;9.80;90.00;;;;;;5062716;28;20488;-48
2022/03/12 05:18:06;;;;;;;15.53;9.77;;;9.80;89.40;;;;;;5061800;28;20563;-48
2022/03/12 05:20:35;;;;;;;12.23;9.30;;;9.80;89.40;;;;;;5060680;28;20535;-49
2022/03/12 05:23:01;;;;;;;17.70;9.67;;;9.80;89.60;;;;;;5061242;28;20566;-48
2022/03/12 05:25:31;;;;;;;14.57;9.80;;;9.80;90.00;;;;;;5059405;28;22206;-47
2022/03/12 05:27:58;;;;;;;13.27;9.23;;;9.80;89.70;;;;;;5060915;28;20536;-47
2022/03/12 05:30:25;;;;;;;28.03;11.10;;;9.80;90.20;;;;;;5059092;28;20568;-47
2022/03/12 05:32:53;;;;;;;15.60;10.63;;;9.80;90.00;;;;;;5059628;28;20496;-47
2022/03/12 05:35:20;;;;;;;12.77;9.17;;;9.80;90.00;;;;;;5060219;28;20487;-48
2022/03/12 05:37:50;;;;;;;15.77;9.90;;;9.80;90.00;;;;;;5060837;28;20493;-47
2022/03/12 05:40:19;;;;;;;11.77;8.90;;;9.70;90.00;;;;;;5060213;28;20497;-47
2022/03/12 05:42:47;;;;;;;14.40;10.30;;;9.60;90.50;;;;;;5059098;28;20493;-47
2022/03/12 05:45:14;;;;;;;23.10;11.50;;;9.50;90.60;;;;;;5059728;28;20568;-47
2022/03/12 05:47:42;;;;;;;16.70;11.10;;;9.40;90.70;;;;;;5063228;28;20486;-47
2022/03/12 05:50:14;;;;;;;21.40;11.57;;;9.40;90.40;;;;;;5059194;28;21430;-48
2022/03/12 05:52:49;;;;;;;14.00;10.20;;;9.40;90.60;;;;;;5059237;28;20494;-47
2022/03/12 05:55:17;;;;;;;16.70;11.27;;;9.40;90.50;;;;;;5059089;28;20472;-48
2022/03/12 05:57:45;;;;;;;14.03;9.43;;;9.50;90.30;;;;;;5059713;28;20539;-48
2022/03/12 06:00:15;;;;;;;12.97;8.70;;;9.50;90.30;;;;;;5059635;28;21037;-47
2022/03/12 06:02:48;;;;;;;13.20;9.90;;;9.50;90.30;;;;;;5060775;28;20483;-48
2022/03/12 06:05:17;;;;;;;18.33;11.23;;;9.60;90.30;;;;;;5058983;28;20891;-48
2022/03/12 06:07:45;;;;;;;16.43;11.07;;;9.70;90.10;;;;;;5060708;28;20490;-47
2022/03/12 06:10:13;;;;;;;14.60;9.97;;;;;;;;;;5059051;28;20483;-47
2022/03/12 06:12:43;;;;;;;20.03;10.60;;;9.40;90.70;;;;;;5058022;28;20484;-47
2022/03/12 06:15:11;;;;;;;15.83;9.40;;;9.30;90.70;;;;;;5058017;28;20494;-47
2022/03/12 06:17:38;;;;;;;21.70;12.90;;;9.10;90.70;;;;;;5057497;28;20557;-48
2022/03/12 06:20:06;;;;;;;20.47;13.10;;;9.10;90.20;;;;;;5057465;28;20999;-47
2022/03/12 06:22:34;;;;;;;17.70;10.60;;;9.10;90.90;;;;;;5051733;28;20568;-48
2022/03/12 06:25:00;;;;;;;25.00;10.70;;;9.20;90.90;;;;;;5071903;28;20473;-47
2022/03/12 06:27:27;;;;;;;12.37;8.47;;;9.20;90.90;;;;;;5059278;28;20477;-47
2022/03/12 06:29:56;;;;;;;14.70;10.20;;;9.20;91.10;;;;;;5057953;28;20484;-48
2022/03/12 06:32:23;;;;;;;18.80;10.30;;;9.30;90.80;;;;;;5060159;28;20485;-48
2022/03/12 06:34:50;;;;;;;12.87;10.40;;;9.40;90.80;;;;;;5060559;28;20478;-48
2022/03/12 06:37:17;;;;;;;18.93;10.73;;;9.40;90.80;;;;;;5059299;28;20486;-48
2022/03/12 06:39:45;;;;;;;19.50;12.53;;;9.50;90.00;;;;;;5064063;28;20582;-48
2022/03/12 06:42:12;;;;;;;20.30;12.93;;;9.50;90.30;;;;;;5060868;28;20494;-48
2022/03/12 06:44:39;;;;;;;24.60;14.10;;;9.60;90.30;;;;;;5060814;28;20505;-48
2022/03/12 06:47:08;;;;;;;20.67;14.40;;;9.60;89.20;;;;;;5061435;28;20560;-49
2022/03/12 06:49:35;;;;;;;20.97;13.50;;;9.60;89.50;;;;;;5053904;28;20482;-48
2022/03/12 06:52:02;;;;;;;27.83;15.77;;;9.60;90.40;;;;;;5058990;28;20478;-48
2022/03/12 06:54:29;;;;;;;26.90;15.20;;;9.50;91.00;;;;;;5060289;28;20584;-47
2022/03/12 06:56:58;;;;;;;28.03;14.73;;;9.40;91.20;;;;;;5043990;28;21315;-47
2022/03/12 06:59:24;;;;;;;15.33;11.67;;;9.40;90.30;;;;;;5055951;28;20482;-47
2022/03/12 07:01:51;;;;;;;23.87;13.50;;;9.40;91.20;;;;;;5057943;28;20478;-47
2022/03/12 07:04:18;;;;;;;26.63;13.50;;;9.50;89.90;;;;;;5062498;28;20873;-47
2022/03/12 07:06:45;;;;;;;22.57;14.90;;;9.60;89.20;;;;;;5059285;28;20522;-48
2022/03/12 07:09:12;;;;;;;28.50;14.63;;;9.70;89.10;;;;;;5058767;28;20541;-48
2022/03/12 07:11:39;;;;;;;23.90;15.60;;;9.80;88.30;;;;;;5060210;28;20480;-48
2022/03/12 07:14:07;;;;;;;19.30;13.33;;;10.00;87.10;;;;;;5060385;28;20508;-49
2022/03/12 07:16:34;;;;;;;25.90;15.30;;;10.00;85.80;;;;;;5059438;28;20540;-47
2022/03/12 07:19:01;;;;;;;22.77;13.93;;;10.10;86.10;;;;;;5060483;28;20478;-51
2022/03/12 07:21:28;;;;;;;22.40;14.80;;;10.30;86.40;;;;;;5058801;28;20549;-48
2022/03/12 07:23:55;;;;;;;25.43;15.40;;;10.70;86.70;;;;;;5061053;28;20489;-48
2022/03/12 07:26:22;;;;;;;18.93;14.30;;;11.00;84.70;;;;;;5057655;28;20573;-48
2022/03/12 07:28:49;;;;;;;26.10;16.50;;;11.30;83.70;;;;;;5060270;28;20480;-48
2022/03/12 07:31:20;;;;;;;23.10;13.80;;;11.80;83.00;;;;;;5057239;28;20586;-48
2022/03/12 07:33:47;;;;;;;24.53;14.40;;;11.80;81.80;;;;;;5072627;28;20762;-49
2022/03/12 07:36:13;;;;;;;24.13;14.80;;;11.80;83.10;;;;;;5063552;28;21030;-48
2022/03/12 07:38:40;;;;;;;23.73;16.33;;;12.00;83.10;;;;;;5063448;28;20483;-48
2022/03/12 07:41:07;;;;;;;24.87;16.37;;;12.20;81.90;;;;;;5071670;28;20476;-49
2022/03/12 07:43:34;;;;;;;27.67;17.83;;;12.30;80.30;;;;;;5062245;28;20548;-49
2022/03/12 07:46:01;;;;;;;28.33;16.47;;;12.40;79.00;;;;;;5067664;28;20479;-48
2022/03/12 07:48:29;;;;;;;25.33;17.37;;;12.50;78.10;;;;;;5062448;28;20477;-48
2022/03/12 07:50:55;;;;;;;28.50;16.33;;;12.90;77.60;;;;;;5062084;28;20486;-49
2022/03/12 07:53:23;;;;;;;27.30;16.40;;;13.60;77.40;;;;;;5062266;28;20832;-49
2022/03/12 07:55:50;;;;;;;23.40;15.50;;;14.00;76.70;;;;;;5061690;28;20500;-48
2022/03/12 07:58:17;;;;;;;25.90;17.00;;;14.20;75.60;;;;;;5061148;28;20484;-49
2022/03/12 08:00:43;;;;;;;30.53;16.70;;;14.80;74.10;;;;;;5061944;28;21354;-49
2022/03/12 08:03:10;;;;;;;24.50;16.83;;;14.90;72.50;;;;;;5062992;28;20486;-48
2022/03/12 08:05:38;;;;;;;22.97;16.43;;;15.00;73.40;;;;;;5061325;28;20550;-49
2022/03/12 08:08:05;;;;;;;27.37;16.77;;;15.10;72.80;;;;;;5060268;28;20485;-48
2022/03/12 08:11:24;;;;;;;28.77;16.33;;;15.10;71.50;;;;;;5061649;28;20494;-48
2022/03/12 08:13:20;;;;;;;30.70;16.07;;;15.10;71.70;;;;;;5060891;28;20804;-49
2022/03/12 08:15:48;;;;;;;22.47;15.63;;;15.10;71.90;;;;;;5062375;28;20498;-49
2022/03/12 08:18:16;;;;;;;25.60;18.57;;;15.20;73.50;;;;;;5062307;28;20489;-49
2022/03/12 08:20:45;;;;;;;30.93;19.10;;;15.50;74.90;;;;;;5066144;28;20476;-48
2022/03/12 08:23:12;;;;;;;28.70;17.97;;;15.70;73.70;;;;;;5062840;28;20575;-48
2022/03/12 08:25:39;;;;;;;26.70;16.53;;;15.80;69.50;;;;;;5062554;28;20490;-48
2022/03/12 08:28:06;;;;;;;23.90;16.57;;;15.70;68.80;;;;;;5060469;28;20530;-49
2022/03/12 08:30:33;;;;;;;19.53;12.50;;;15.60;68.10;;;;;;5054035;28;20556;-49
2022/03/12 08:32:59;;;;;;;19.00;12.70;;;15.20;68.30;;;;;;5061171;28;20483;-48
2022/03/12 08:35:26;;;;;;;20.00;11.30;;;14.80;69.00;;;;;;5063193;28;20544;-48
2022/03/12 08:37:54;;;;;;;18.80;11.80;;;14.70;69.10;;;;;;5059902;28;20498;-48
2022/03/12 08:40:22;;;;;;;15.40;12.70;;;;;;;;;;5030454;28;20475;-49
2022/03/12 08:42:50;;;;;;;17.43;13.63;;;14.20;70.00;;;;;;5054802;28;20470;-48
2022/03/12 08:45:17;;;;;;;16.60;13.43;;;14.00;70.90;;;;;;5063164;28;20489;-49
2022/03/12 08:47:44;;;;;;;17.53;14.17;;;13.60;70.70;;;;;;5061488;28;20502;-50
2022/03/12 08:50:11;;;;;;;16.47;12.27;;;13.60;69.80;;;;;;5059900;28;20509;-48
2022/03/12 08:52:39;;;;;;;23.00;11.60;;;13.50;69.70;;;;;;5057429;28;20618;-47
2022/03/12 08:55:08;;;;;;;22.13;14.57;;;13.60;69.60;;;;;;5058628;28;20501;-48
2022/03/12 08:57:35;;;;;;;25.97;18.60;;;13.50;68.60;;;;;;5057635;28;20485;-48
2022/03/12 09:00:05;;;;;;;23.80;16.00;;;13.40;68.90;;;;;;5058707;28;20485;-48
2022/03/12 09:02:33;;;;;;;29.30;17.47;;;13.60;69.50;;;;;;5060740;28;20486;-48
2022/03/12 09:05:00;;;;;;;24.47;16.93;;;13.80;70.20;;;;;;5067869;28;20501;-50
2022/03/12 09:07:27;;;;;;;31.23;17.60;;;13.60;67.00;;;;;;5062755;28;20478;-48
2022/03/12 09:09:54;;;;;;;10.17;6.30;;;13.60;66.50;;;;;;5063979;28;20488;-48
2022/03/12 09:12:22;;;;;;;24.93;16.47;;;13.70;68.50;;;;;;5062428;28;20565;-48
2022/03/12 09:14:50;;;;;;;29.50;17.60;;;13.60;66.50;;;;;;5061720;28;20480;-48
2022/03/12 09:17:16;;;;;;;23.13;11.17;;;13.60;67.50;;;;;;5061861;28;20482;-48
2022/03/12 09:19:43;;;;;;;23.13;16.90;;;13.70;66.80;;;;;;5060238;28;20488;-48
2022/03/12 09:22:10;;;;;;;24.73;16.73;;;13.90;69.30;;;;;;5062088;28;20489;-48
2022/03/12 09:24:38;;;;;;;40.43;18.83;;;14.00;67.30;;;;;;5062007;28;20543;-49
2022/03/12 09:27:06;;;;;;;25.10;17.57;;;14.00;67.70;;;;;;5051176;28;20491;-48
2022/03/12 09:29:35;;;;;;;26.73;15.77;;;14.00;68.30;;;;;;5046351;28;20508;-48
2022/03/12 09:32:02;;;;;;;26.70;15.97;;;14.20;67.10;;;;;;5051604;28;20820;-48
2022/03/12 09:34:29;;;;;;;21.10;16.17;;;14.30;69.00;;;;;;5054515;28;20490;-48
2022/03/12 09:36:55;;;;;;;21.13;14.53;;;14.40;68.40;;;;;;5065721;28;20488;-47
2022/03/12 09:39:22;;;;;;;30.83;16.63;;;14.50;68.90;;;;;;5066273;28;20484;-48
2022/03/12 09:41:50;;;;;;;21.20;14.80;;;14.40;66.90;;;;;;5066663;28;20555;-48
2022/03/12 09:44:17;;;;;;;21.97;13.93;;;14.40;67.10;;;;;;5060882;28;21693;-48
2022/03/12 09:46:45;;;;;;;19.60;11.77;;;14.40;68.10;;;;;;5057431;28;21013;-48
2022/03/12 09:49:12;;;;;;;17.40;10.33;;;14.50;71.30;;;;;;5059371;28;20547;-49
2022/03/12 09:51:39;;;;;;;17.77;12.20;;;14.80;70.00;;;;;;5062172;28;20940;-49
2022/03/12 09:54:06;;;;;;;16.60;10.93;;;14.80;69.00;;;;;;5059112;28;20493;-49
2022/03/12 09:56:33;;;;;;;12.13;8.20;;;15.00;69.30;;;;;;5059975;28;21131;-49
2022/03/12 09:58:59;;;;;;;11.00;9.03;;;15.00;69.40;;;;;;5056174;28;20977;-50
2022/03/12 10:01:26;;;;;;;13.43;8.00;;;15.00;68.30;;;;;;5057518;28;20490;-49
2022/03/12 10:03:54;;;;;;;9.17;8.23;;;15.10;67.60;;;;;;5059862;28;20555;-51
2022/03/12 10:06:21;;;;;;;6.50;4.60;;;15.10;67.70;;;;;;5060231;28;20490;-49
2022/03/12 10:08:48;;;;;;;14.03;6.17;;;15.00;67.10;;;;;;5057817;28;21397;-51
2022/03/12 10:11:14;;;;;;;10.60;6.70;;;15.10;68.20;;;;;;5060419;28;20485;-50
2022/03/12 10:13:41;;;;;;;8.47;6.53;;;15.10;66.70;;;;;;5061938;28;20479;-49
2022/03/12 10:16:09;;;;;;;14.10;6.77;;;15.30;67.30;;;;;;5060468;28;20493;-49
2022/03/12 10:18:36;;;;;;;6.67;5.20;;;15.40;67.20;;;;;;5060723;28;20522;-50
2022/03/12 10:21:05;;;;;;;8.03;5.83;;;15.30;65.40;;;;;;5057916;28;20562;-49
2022/03/12 10:23:32;;;;;;;10.67;4.73;;;15.10;66.50;;;;;;5060106;28;21026;-50
2022/03/12 10:25:59;;;;;;;8.50;4.83;;;15.10;66.30;;;;;;5060768;28;20470;-49
2022/03/12 10:28:29;;;;;;;6.93;4.63;;;15.00;66.00;;;;;;5059045;28;20497;-49
2022/03/12 10:30:55;;;;;;;10.20;4.83;;;14.90;66.80;;;;;;5058619;28;20985;-51
2022/03/12 10:33:24;;;;;;;7.90;5.83;;;15.00;67.60;;;;;;5059078;28;20513;-51
2022/03/12 10:35:51;;;;;;;22.30;6.93;;;;;;;;;;5058563;28;20916;-50
2022/03/12 10:38:22;;;;;;;18.00;6.90;;;;;;;;;;5057571;28;20498;-52
2022/03/12 10:40:49;;;;;;;13.67;6.20;;;15.60;67.80;;;;;;5058390;28;20505;-50
2022/03/12 10:43:16;;;;;;;16.03;6.77;;;15.50;66.60;;;;;;5057207;28;20510;-49
2022/03/12 10:45:45;;;;;;;9.33;6.73;;;15.50;66.80;;;;;;5060089;28;20483;-49
2022/03/12 10:48:12;;;;;;;12.03;6.77;;;15.60;68.00;;;;;;5060657;28;20485;-50
2022/03/12 10:50:42;;;;;;;10.77;6.40;;;15.70;67.60;;;;;;5053065;28;20503;-51
2022/03/12 10:53:10;;;;;;;8.37;5.90;;;15.60;66.20;;;;;;5058601;28;20478;-50
2022/03/12 10:55:41;;;;;;;10.53;6.47;;;15.70;66.50;;;;;;5056338;28;20514;-52
2022/03/12 10:58:10;;;;;;;17.63;6.87;;;15.80;65.60;;;;;;5056889;28;20896;-50
2022/03/12 11:00:38;;;;;;;9.83;6.60;;;15.60;65.20;;;;;;5054722;28;20540;-50
2022/03/12 11:03:08;;;;;;;11.60;6.60;;;15.60;66.60;;;;;;5063941;28;20481;-51
2022/03/12 11:05:36;;;;;;;9.17;6.87;;;15.60;68.20;;;;;;5065961;28;20565;-50
2022/03/12 11:08:16;;;;;;;9.17;6.53;;;15.70;66.90;;;;;;5062754;28;20490;-51
2022/03/12 11:10:57;;;;;;;13.70;6.93;;;15.60;65.60;;;;;;5060463;28;20485;-53
2022/03/12 11:13:38;;;;;;;12.07;7.47;;;15.60;66.00;;;;;;5061718;28;21016;-50
2022/03/12 11:16:14;;;;;;;10.10;6.50;;;15.60;65.70;;;;;;5059285;28;20485;-49
2022/03/12 11:19:10;;;;;;;10.77;6.60;;;15.70;67.10;;;;;;5058923;28;20830;-49
2022/03/12 11:21:40;;;;;;;8.73;6.90;;;15.80;67.80;;;;;;5053561;28;20482;-51
2022/03/12 11:24:08;;;;;;;14.93;7.33;;;15.90;66.70;;;;;;5064179;28;20477;-51
2022/03/12 11:26:47;;;;;;;9.53;6.27;;;15.90;66.70;;;;;;5038676;28;20501;-51
2022/03/12 11:29:14;;;;;;;9.20;6.80;;;16.00;66.30;;;;;;5050547;28;20485;-51
2022/03/12 11:31:44;;;;;;;10.40;7.30;;;16.10;67.50;;;;;;5056808;28;20478;-50
2022/03/12 11:34:19;;;;;;;8.90;8.00;;;16.20;67.80;;;;;;5061558;28;20486;-49
2022/03/12 11:36:48;;;;;;;13.77;8.00;;;16.10;67.80;;;;;;5062612;28;20483;-50
2022/03/12 11:39:20;;;;;;;15.23;9.27;;;15.90;67.60;;;;;;5060955;28;20486;-49
2022/03/12 11:42:03;;;;;;;11.53;8.83;;;15.70;66.60;;;;;;5062834;28;20479;-49
2022/03/12 11:44:32;;;;;;;22.33;10.17;;;15.60;66.70;;;;;;5061460;28;20478;-49
2022/03/12 11:46:59;;;;;;;16.20;11.03;;;15.70;67.90;;;;;;5061833;28;20689;-49
2022/03/12 11:49:27;;;;;;;17.53;12.40;;;15.60;66.50;;;;;;5061177;28;20565;-50
2022/03/12 11:51:56;;;;;;;18.23;12.03;;;15.50;66.30;;;;;;5058383;28;20594;-50
2022/03/12 11:54:23;;;;;;;18.30;13.70;;;15.50;66.80;;;;;;5061042;28;20475;-51
2022/03/12 11:56:51;;;;;;;17.00;11.40;;;15.40;67.20;;;;;;5059112;28;20517;-52
2022/03/12 11:59:19;;;;;;;18.13;13.00;;;15.30;66.80;;;;;;5060017;28;20479;-51
2022/03/12 12:02:01;;;;;;;20.57;14.13;;;15.30;66.80;;;;;;5061699;28;20507;-50
2022/03/12 12:04:30;;;;;;;20.83;13.50;;;15.30;66.00;;;;;;5061176;28;20447;-50
2022/03/12 12:06:58;;;;;;;24.20;13.90;;;15.30;65.90;;;;;;5061410;28;20574;-50
2022/03/12 12:09:25;;;;;;;14.97;11.30;;;15.60;68.30;;;;;;5060203;28;20495;-51
2022/03/12 12:11:53;;;;;;;16.93;12.20;;;15.70;66.90;;;;;;5062496;28;20492;-51
2022/03/12 12:14:21;;;;;;;19.47;13.60;;;15.50;65.70;;;;;;5062145;28;20541;-49
2022/03/12 12:16:47;;;;;;;17.20;12.80;;;15.40;66.20;;;;;;5062246;28;20479;-49
2022/03/12 12:19:16;;;;;;;20.23;14.20;;;15.40;68.10;;;;;;5060223;28;20485;-49
2022/03/12 12:21:43;;;;;;;20.63;12.50;;;15.40;66.50;;;;;;5059380;28;21007;-49
2022/03/12 12:24:25;;;;;;;30.00;12.70;;;15.40;66.30;;;;;;5061780;28;20482;-56
2022/03/12 12:27:00;;;;;;;24.60;14.50;;;15.50;66.50;;;;;;5058672;28;20482;-50
2022/03/12 12:29:45;;;;;;;31.43;14.47;;;15.40;66.10;;;;;;5054876;28;20900;-51
2022/03/12 12:32:14;;;;;;;20.00;13.20;;;15.50;66.20;;;;;;5050410;28;20467;-49
2022/03/12 12:35:13;;;;;;;23.93;13.57;;;15.50;66.50;;;;;;5066344;28;20478;-47
2022/03/12 12:37:59;;;;;;;23.47;13.50;;;15.50;66.20;;;;;;5032658;28;20503;-48
2022/03/12 12:40:31;;;;;;;21.80;14.60;;;15.40;65.30;;;;;;5051103;28;21111;-49
2022/03/12 12:43:01;;;;;;;26.13;13.30;;;15.50;66.20;;;;;;5059754;28;20491;-48
2022/03/12 12:45:32;;;;;;;19.30;13.07;;;15.50;65.80;;;;;;5059947;28;20841;-49